sensor_id;sensor_type;location;lat;lon;timestamp;pressure;altitude;pressure_sealevel;temperature
56286;BMP180;42191;47.562;9.686;2023-09-19T00:00:43;96711.00;;;21.80
56286;BMP180;42191;47.562;9.686;2023-09-19T00:03:10;96706.00;;;21.80
56286;BMP180;42191;47.562;9.686;2023-09-19T00:05:39;96710.00;;;21.80
56286;BMP180;42191;47.562;9.686;2023-09-19T00:08:17;96712.00;;;21.80
56286;BMP180;42191;47.562;9.686;2023-09-19T00:10:54;96713.00;;;21.90
56286;BMP180;42191;47.562;9.686;2023-09-19T00:13:20;96727.00;;;21.80
56286;BMP180;42191;47.562;9.686;2023-09-19T00:15:48;96718.00;;;21.90
56286;BMP180;42191;47.562;9.686;2023-09-19T00:18:14;96727.00;;;21.90
56286;BMP180;42191;47.562;9.686;2023-09-19T00:20:47;96717.00;;;21.90
56286;BMP180;42191;47.562;9.686;2023-09-19T00:23:16;96715.00;;;21.90
56286;BMP180;42191;47.562;9.686;2023-09-19T00:25:46;96721.00;;;22.00
56286;BMP180;42191;47.562;9.686;2023-09-19T00:28:12;96744.00;;;22.00
56286;BMP180;42191;47.562;9.686;2023-09-19T00:30:38;96745.00;;;22.00
56286;BMP180;42191;47.562;9.686;2023-09-19T00:33:05;96747.00;;;22.00
56286;BMP180;42191;47.562;9.686;2023-09-19T00:35:39;96730.00;;;22.00
56286;BMP180;42191;47.562;9.686;2023-09-19T00:38:12;96740.00;;;22.00
56286;BMP180;42191;47.562;9.686;2023-09-19T00:40:44;96740.00;;;22.00
56286;BMP180;42191;47.562;9.686;2023-09-19T00:43:11;96749.00;;;22.00
56286;BMP180;42191;47.562;9.686;2023-09-19T00:45:38;96755.00;;;21.90
56286;BMP180;42191;47.562;9.686;2023-09-19T00:48:06;96754.00;;;21.90
56286;BMP180;42191;47.562;9.686;2023-09-19T00:50:36;96750.00;;;21.90
56286;BMP180;42191;47.562;9.686;2023-09-19T00:53:03;96753.00;;;21.90
56286;BMP180;42191;47.562;9.686;2023-09-19T00:55:34;96743.00;;;21.90
56286;BMP180;42191;47.562;9.686;2023-09-19T00:58:13;96758.00;;;21.80
56286;BMP180;42191;47.562;9.686;2023-09-19T01:00:49;96745.00;;;21.80
56286;BMP180;42191;47.562;9.686;2023-09-19T01:03:16;96750.00;;;21.80
56286;BMP180;42191;47.562;9.686;2023-09-19T01:05:50;96735.00;;;21.80
56286;BMP180;42191;47.562;9.686;2023-09-19T01:08:16;96734.00;;;21.80
56286;BMP180;42191;47.562;9.686;2023-09-19T01:11:11;96739.00;;;21.70
56286;BMP180;42191;47.562;9.686;2023-09-19T01:19:46;96736.00;;;21.70
56286;BMP180;42191;47.562;9.686;2023-09-19T01:22:32;96721.00;;;21.70
56286;BMP180;42191;47.562;9.686;2023-09-19T01:30:39;96740.00;;;21.70
56286;BMP180;42191;47.562;9.686;2023-09-19T01:33:07;96741.00;;;21.70
56286;BMP180;42191;47.562;9.686;2023-09-19T01:35:35;96743.00;;;21.80
56286;BMP180;42191;47.562;9.686;2023-09-19T01:38:09;96735.00;;;21.80
56286;BMP180;42191;47.562;9.686;2023-09-19T01:40:43;96741.00;;;21.80
56286;BMP180;42191;47.562;9.686;2023-09-19T01:46:39;96742.00;;;21.80
56286;BMP180;42191;47.562;9.686;2023-09-19T01:49:27;96754.00;;;21.80
56286;BMP180;42191;47.562;9.686;2023-09-19T01:52:12;96748.00;;;21.90
56286;BMP180;42191;47.562;9.686;2023-09-19T01:54:52;96753.00;;;21.90
56286;BMP180;42191;47.562;9.686;2023-09-19T01:57:34;96762.00;;;21.90
56286;BMP180;42191;47.562;9.686;2023-09-19T02:00:04;96761.00;;;22.00
56286;BMP180;42191;47.562;9.686;2023-09-19T02:02:39;96762.00;;;22.00
56286;BMP180;42191;47.562;9.686;2023-09-19T02:05:06;96770.00;;;22.10
56286;BMP180;42191;47.562;9.686;2023-09-19T02:07:33;96766.00;;;22.10
56286;BMP180;42191;47.562;9.686;2023-09-19T02:10:01;96765.00;;;22.20
56286;BMP180;42191;47.562;9.686;2023-09-19T02:12:31;96778.00;;;22.20
56286;BMP180;42191;47.562;9.686;2023-09-19T02:14:58;96773.00;;;22.20
56286;BMP180;42191;47.562;9.686;2023-09-19T02:17:31;96772.00;;;22.20
56286;BMP180;42191;47.562;9.686;2023-09-19T02:19:57;96766.00;;;22.20
56286;BMP180;42191;47.562;9.686;2023-09-19T02:22:24;96774.00;;;22.20
56286;BMP180;42191;47.562;9.686;2023-09-19T02:24:51;96764.00;;;22.10
56286;BMP180;42191;47.562;9.686;2023-09-19T02:27:18;96756.00;;;22.10
56286;BMP180;42191;47.562;9.686;2023-09-19T02:29:48;96758.00;;;22.10
56286;BMP180;42191;47.562;9.686;2023-09-19T02:32:15;96757.00;;;22.10
56286;BMP180;42191;47.562;9.686;2023-09-19T02:34:44;96751.00;;;22.10
56286;BMP180;42191;47.562;9.686;2023-09-19T02:37:10;96760.00;;;22.10
56286;BMP180;42191;47.562;9.686;2023-09-19T02:39:39;96761.00;;;22.10
56286;BMP180;42191;47.562;9.686;2023-09-19T02:42:17;96768.00;;;22.10
56286;BMP180;42191;47.562;9.686;2023-09-19T02:44:44;96767.00;;;22.20
56286;BMP180;42191;47.562;9.686;2023-09-19T02:47:12;96773.00;;;22.20
56286;BMP180;42191;47.562;9.686;2023-09-19T02:49:41;96774.00;;;22.20
56286;BMP180;42191;47.562;9.686;2023-09-19T02:52:08;96774.00;;;22.20
56286;BMP180;42191;47.562;9.686;2023-09-19T02:54:37;96772.00;;;22.20
56286;BMP180;42191;47.562;9.686;2023-09-19T02:57:03;96763.00;;;22.30
56286;BMP180;42191;47.562;9.686;2023-09-19T02:59:32;96771.00;;;22.30
56286;BMP180;42191;47.562;9.686;2023-09-19T03:01:58;96778.00;;;22.30
56286;BMP180;42191;47.562;9.686;2023-09-19T03:04:26;96776.00;;;22.30
56286;BMP180;42191;47.562;9.686;2023-09-19T03:06:54;96783.00;;;22.30
56286;BMP180;42191;47.562;9.686;2023-09-19T03:09:29;96775.00;;;22.30
56286;BMP180;42191;47.562;9.686;2023-09-19T03:11:55;96782.00;;;22.30
56286;BMP180;42191;47.562;9.686;2023-09-19T03:14:22;96783.00;;;22.30
56286;BMP180;42191;47.562;9.686;2023-09-19T03:16:49;96782.00;;;22.40
56286;BMP180;42191;47.562;9.686;2023-09-19T03:19:18;96792.00;;;22.40
56286;BMP180;42191;47.562;9.686;2023-09-19T03:21:46;96786.00;;;22.40
56286;BMP180;42191;47.562;9.686;2023-09-19T03:24:16;96781.00;;;22.40
56286;BMP180;42191;47.562;9.686;2023-09-19T03:26:42;96788.00;;;22.40
56286;BMP180;42191;47.562;9.686;2023-09-19T03:29:11;96789.00;;;22.40
56286;BMP180;42191;47.562;9.686;2023-09-19T03:31:37;96792.00;;;22.40
56286;BMP180;42191;47.562;9.686;2023-09-19T03:34:12;96803.00;;;22.40
56286;BMP180;42191;47.562;9.686;2023-09-19T03:36:39;96791.00;;;22.40
56286;BMP180;42191;47.562;9.686;2023-09-19T03:39:07;96784.00;;;22.40
56286;BMP180;42191;47.562;9.686;2023-09-19T03:41:34;96791.00;;;22.40
56286;BMP180;42191;47.562;9.686;2023-09-19T03:44:02;96788.00;;;22.40
56286;BMP180;42191;47.562;9.686;2023-09-19T03:46:30;96785.00;;;22.40
56286;BMP180;42191;47.562;9.686;2023-09-19T03:48:56;96793.00;;;22.40
56286;BMP180;42191;47.562;9.686;2023-09-19T03:51:22;96790.00;;;22.40
56286;BMP180;42191;47.562;9.686;2023-09-19T03:53:48;96803.00;;;22.40
56286;BMP180;42191;47.562;9.686;2023-09-19T03:56:29;96797.00;;;22.40
56286;BMP180;42191;47.562;9.686;2023-09-19T03:58:56;96790.00;;;22.40
56286;BMP180;42191;47.562;9.686;2023-09-19T04:01:22;96781.00;;;22.40
56286;BMP180;42191;47.562;9.686;2023-09-19T04:03:48;96789.00;;;22.40
56286;BMP180;42191;47.562;9.686;2023-09-19T04:06:17;96794.00;;;22.40
56286;BMP180;42191;47.562;9.686;2023-09-19T04:08:43;96787.00;;;22.40
56286;BMP180;42191;47.562;9.686;2023-09-19T04:11:10;96785.00;;;22.40
56286;BMP180;42191;47.562;9.686;2023-09-19T04:13:36;96788.00;;;22.40
56286;BMP180;42191;47.562;9.686;2023-09-19T04:16:03;96777.00;;;22.40
56286;BMP180;42191;47.562;9.686;2023-09-19T04:18:36;96778.00;;;22.40
56286;BMP180;42191;47.562;9.686;2023-09-19T04:21:13;96777.00;;;22.40
56286;BMP180;42191;47.562;9.686;2023-09-19T04:23:40;96778.00;;;22.40
56286;BMP180;42191;47.562;9.686;2023-09-19T04:26:09;96773.00;;;22.50
56286;BMP180;42191;47.562;9.686;2023-09-19T04:28:35;96771.00;;;22.50
56286;BMP180;42191;47.562;9.686;2023-09-19T04:31:04;96779.00;;;22.50
56286;BMP180;42191;47.562;9.686;2023-09-19T04:33:30;96783.00;;;22.50
56286;BMP180;42191;47.562;9.686;2023-09-19T04:35:56;96786.00;;;22.50
56286;BMP180;42191;47.562;9.686;2023-09-19T04:38:23;96785.00;;;22.50
56286;BMP180;42191;47.562;9.686;2023-09-19T04:40:49;96785.00;;;22.50
56286;BMP180;42191;47.562;9.686;2023-09-19T04:43:15;96789.00;;;22.40
56286;BMP180;42191;47.562;9.686;2023-09-19T04:45:41;96788.00;;;22.40
56286;BMP180;42191;47.562;9.686;2023-09-19T04:48:11;96789.00;;;22.40
56286;BMP180;42191;47.562;9.686;2023-09-19T04:50:37;96803.00;;;22.30
56286;BMP180;42191;47.562;9.686;2023-09-19T04:53:06;96802.00;;;22.30
56286;BMP180;42191;47.562;9.686;2023-09-19T04:55:33;96797.00;;;22.30
56286;BMP180;42191;47.562;9.686;2023-09-19T04:57:59;96801.00;;;22.30
56286;BMP180;42191;47.562;9.686;2023-09-19T05:00:31;96806.00;;;22.20
56286;BMP180;42191;47.562;9.686;2023-09-19T05:03:10;96811.00;;;22.20
56286;BMP180;42191;47.562;9.686;2023-09-19T05:05:38;96822.00;;;22.20
56286;BMP180;42191;47.562;9.686;2023-09-19T05:08:11;96811.00;;;22.20
56286;BMP180;42191;47.562;9.686;2023-09-19T05:10:38;96829.00;;;22.20
56286;BMP180;42191;47.562;9.686;2023-09-19T05:13:05;96833.00;;;22.10
56286;BMP180;42191;47.562;9.686;2023-09-19T05:15:33;96835.00;;;22.10
56286;BMP180;42191;47.562;9.686;2023-09-19T05:18:00;96831.00;;;22.10
56286;BMP180;42191;47.562;9.686;2023-09-19T05:20:27;96842.00;;;22.10
56286;BMP180;42191;47.562;9.686;2023-09-19T05:23:06;96844.00;;;22.10
56286;BMP180;42191;47.562;9.686;2023-09-19T05:25:39;96851.00;;;22.10
56286;BMP180;42191;47.562;9.686;2023-09-19T05:28:07;96835.00;;;22.10
56286;BMP180;42191;47.562;9.686;2023-09-19T05:30:33;96851.00;;;22.10
56286;BMP180;42191;47.562;9.686;2023-09-19T05:33:05;96845.00;;;22.10
56286;BMP180;42191;47.562;9.686;2023-09-19T05:35:40;96838.00;;;22.10
56286;BMP180;42191;47.562;9.686;2023-09-19T05:38:08;96850.00;;;22.10
56286;BMP180;42191;47.562;9.686;2023-09-19T05:40:38;96852.00;;;22.10
56286;BMP180;42191;47.562;9.686;2023-09-19T05:43:09;96854.00;;;22.10
56286;BMP180;42191;47.562;9.686;2023-09-19T05:45:44;96849.00;;;22.10
56286;BMP180;42191;47.562;9.686;2023-09-19T05:48:13;96854.00;;;22.10
56286;BMP180;42191;47.562;9.686;2023-09-19T05:50:44;96854.00;;;22.20
56286;BMP180;42191;47.562;9.686;2023-09-19T05:53:12;96851.00;;;22.20
56286;BMP180;42191;47.562;9.686;2023-09-19T05:55:41;96863.00;;;22.20
56286;BMP180;42191;47.562;9.686;2023-09-19T05:58:16;96856.00;;;22.20
56286;BMP180;42191;47.562;9.686;2023-09-19T06:00:46;96864.00;;;22.20
56286;BMP180;42191;47.562;9.686;2023-09-19T06:03:15;96866.00;;;22.30
56286;BMP180;42191;47.562;9.686;2023-09-19T06:05:43;96857.00;;;22.30
56286;BMP180;42191;47.562;9.686;2023-09-19T06:08:09;96862.00;;;22.30
56286;BMP180;42191;47.562;9.686;2023-09-19T06:10:37;96864.00;;;22.30
56286;BMP180;42191;47.562;9.686;2023-09-19T06:13:04;96876.00;;;22.30
56286;BMP180;42191;47.562;9.686;2023-09-19T06:15:31;96882.00;;;22.40
56286;BMP180;42191;47.562;9.686;2023-09-19T06:17:59;96877.00;;;22.40
56286;BMP180;42191;47.562;9.686;2023-09-19T06:20:28;96885.00;;;22.40
56286;BMP180;42191;47.562;9.686;2023-09-19T06:22:54;96887.00;;;22.40
56286;BMP180;42191;47.562;9.686;2023-09-19T06:25:28;96892.00;;;22.40
56286;BMP180;42191;47.562;9.686;2023-09-19T06:27:54;96886.00;;;22.40
56286;BMP180;42191;47.562;9.686;2023-09-19T06:30:24;96887.00;;;22.50
56286;BMP180;42191;47.562;9.686;2023-09-19T06:32:57;96891.00;;;22.50
56286;BMP180;42191;47.562;9.686;2023-09-19T06:35:24;96886.00;;;22.50
56286;BMP180;42191;47.562;9.686;2023-09-19T06:37:52;96887.00;;;22.50
56286;BMP180;42191;47.562;9.686;2023-09-19T06:40:19;96892.00;;;22.60
56286;BMP180;42191;47.562;9.686;2023-09-19T06:42:50;96891.00;;;22.60
56286;BMP180;42191;47.562;9.686;2023-09-19T06:45:16;96902.00;;;22.70
56286;BMP180;42191;47.562;9.686;2023-09-19T06:47:49;96898.00;;;22.70
56286;BMP180;42191;47.562;9.686;2023-09-19T06:50:22;96911.00;;;22.70
56286;BMP180;42191;47.562;9.686;2023-09-19T06:52:50;96912.00;;;22.80
56286;BMP180;42191;47.562;9.686;2023-09-19T06:55:21;96920.00;;;22.80
56286;BMP180;42191;47.562;9.686;2023-09-19T06:57:51;96913.00;;;22.80
56286;BMP180;42191;47.562;9.686;2023-09-19T07:00:17;96912.00;;;22.90
56286;BMP180;42191;47.562;9.686;2023-09-19T07:03:01;96923.00;;;23.00
56286;BMP180;42191;47.562;9.686;2023-09-19T07:05:49;96925.00;;;23.00
56286;BMP180;42191;47.562;9.686;2023-09-19T07:08:17;96913.00;;;23.10
56286;BMP180;42191;47.562;9.686;2023-09-19T07:10:44;96928.00;;;23.20
56286;BMP180;42191;47.562;9.686;2023-09-19T07:13:17;96925.00;;;23.20
56286;BMP180;42191;47.562;9.686;2023-09-19T07:15:44;96930.00;;;23.30
56286;BMP180;42191;47.562;9.686;2023-09-19T07:18:20;96930.00;;;23.30
56286;BMP180;42191;47.562;9.686;2023-09-19T07:20:47;96930.00;;;23.30
56286;BMP180;42191;47.562;9.686;2023-09-19T07:23:17;96944.00;;;23.30
56286;BMP180;42191;47.562;9.686;2023-09-19T07:25:47;96937.00;;;23.40
56286;BMP180;42191;47.562;9.686;2023-09-19T07:28:14;96938.00;;;23.40
56286;BMP180;42191;47.562;9.686;2023-09-19T07:30:41;96945.00;;;23.50
56286;BMP180;42191;47.562;9.686;2023-09-19T07:33:08;96952.00;;;23.60
56286;BMP180;42191;47.562;9.686;2023-09-19T07:35:37;96949.00;;;23.60
56286;BMP180;42191;47.562;9.686;2023-09-19T07:38:06;96952.00;;;23.70
56286;BMP180;42191;47.562;9.686;2023-09-19T07:40:34;96959.00;;;23.80
56286;BMP180;42191;47.562;9.686;2023-09-19T07:43:09;96963.00;;;23.80
56286;BMP180;42191;47.562;9.686;2023-09-19T07:45:37;96963.00;;;23.80
56286;BMP180;42191;47.562;9.686;2023-09-19T07:48:03;96968.00;;;23.80
56286;BMP180;42191;47.562;9.686;2023-09-19T07:50:41;96965.00;;;23.80
56286;BMP180;42191;47.562;9.686;2023-09-19T07:53:09;96961.00;;;23.70
56286;BMP180;42191;47.562;9.686;2023-09-19T07:55:36;96965.00;;;23.80
56286;BMP180;42191;47.562;9.686;2023-09-19T07:58:02;96963.00;;;23.80
56286;BMP180;42191;47.562;9.686;2023-09-19T08:00:31;96969.00;;;23.80
56286;BMP180;42191;47.562;9.686;2023-09-19T08:03:00;96977.00;;;23.80
56286;BMP180;42191;47.562;9.686;2023-09-19T08:05:27;96975.00;;;23.80
56286;BMP180;42191;47.562;9.686;2023-09-19T08:07:54;96981.00;;;23.80
56286;BMP180;42191;47.562;9.686;2023-09-19T08:10:22;96989.00;;;23.80
56286;BMP180;42191;47.562;9.686;2023-09-19T08:12:49;96990.00;;;23.90
56286;BMP180;42191;47.562;9.686;2023-09-19T08:15:22;96977.00;;;23.90
56286;BMP180;42191;47.562;9.686;2023-09-19T08:17:48;96990.00;;;23.90
56286;BMP180;42191;47.562;9.686;2023-09-19T08:20:17;96991.00;;;23.90
56286;BMP180;42191;47.562;9.686;2023-09-19T08:22:54;96992.00;;;23.90
56286;BMP180;42191;47.562;9.686;2023-09-19T08:25:24;96988.00;;;23.90
56286;BMP180;42191;47.562;9.686;2023-09-19T08:27:55;96982.00;;;23.90
56286;BMP180;42191;47.562;9.686;2023-09-19T08:30:24;96983.00;;;23.90
56286;BMP180;42191;47.562;9.686;2023-09-19T08:33:19;96980.00;;;23.90
56286;BMP180;42191;47.562;9.686;2023-09-19T08:35:46;96984.00;;;24.00
56286;BMP180;42191;47.562;9.686;2023-09-19T08:38:13;96977.00;;;24.00
56286;BMP180;42191;47.562;9.686;2023-09-19T08:40:40;96980.00;;;24.00
56286;BMP180;42191;47.562;9.686;2023-09-19T08:43:09;96982.00;;;24.00
56286;BMP180;42191;47.562;9.686;2023-09-19T08:45:39;96990.00;;;24.10
56286;BMP180;42191;47.562;9.686;2023-09-19T08:48:23;96990.00;;;24.10
56286;BMP180;42191;47.562;9.686;2023-09-19T08:51:06;96982.00;;;24.10
56286;BMP180;42191;47.562;9.686;2023-09-19T08:53:44;96987.00;;;24.20
56286;BMP180;42191;47.562;9.686;2023-09-19T08:56:19;96985.00;;;24.30
56286;BMP180;42191;47.562;9.686;2023-09-19T08:59:04;96984.00;;;24.30
56286;BMP180;42191;47.562;9.686;2023-09-19T09:01:34;96991.00;;;24.30
56286;BMP180;42191;47.562;9.686;2023-09-19T09:04:02;96996.00;;;24.40
56286;BMP180;42191;47.562;9.686;2023-09-19T09:06:29;96988.00;;;24.40
56286;BMP180;42191;47.562;9.686;2023-09-19T09:08:55;96986.00;;;24.50
56286;BMP180;42191;47.562;9.686;2023-09-19T09:11:22;96991.00;;;24.60
56286;BMP180;42191;47.562;9.686;2023-09-19T09:13:51;97000.00;;;24.70
56286;BMP180;42191;47.562;9.686;2023-09-19T09:16:17;96997.00;;;24.80
56286;BMP180;42191;47.562;9.686;2023-09-19T09:18:45;97010.00;;;24.90
56286;BMP180;42191;47.562;9.686;2023-09-19T09:21:12;97016.00;;;25.00
56286;BMP180;42191;47.562;9.686;2023-09-19T09:23:40;97017.00;;;25.10
56286;BMP180;42191;47.562;9.686;2023-09-19T09:26:08;97010.00;;;25.20
56286;BMP180;42191;47.562;9.686;2023-09-19T09:28:35;97012.00;;;25.30
56286;BMP180;42191;47.562;9.686;2023-09-19T09:31:05;97021.00;;;25.40
56286;BMP180;42191;47.562;9.686;2023-09-19T09:33:35;97005.00;;;25.40
56286;BMP180;42191;47.562;9.686;2023-09-19T09:36:04;97005.00;;;25.50
56286;BMP180;42191;47.562;9.686;2023-09-19T09:38:46;97011.00;;;25.50
56286;BMP180;42191;47.562;9.686;2023-09-19T09:41:16;97013.00;;;25.60
56286;BMP180;42191;47.562;9.686;2023-09-19T09:43:54;97017.00;;;25.70
56286;BMP180;42191;47.562;9.686;2023-09-19T09:46:26;97010.00;;;25.70
56286;BMP180;42191;47.562;9.686;2023-09-19T09:49:02;97012.00;;;25.70
56286;BMP180;42191;47.562;9.686;2023-09-19T09:51:46;97015.00;;;25.70
56286;BMP180;42191;47.562;9.686;2023-09-19T09:54:27;97008.00;;;25.70
56286;BMP180;42191;47.562;9.686;2023-09-19T09:57:00;97007.00;;;25.70
56286;BMP180;42191;47.562;9.686;2023-09-19T09:59:52;97001.00;;;25.80
56286;BMP180;42191;47.562;9.686;2023-09-19T10:02:27;97009.00;;;25.80
56286;BMP180;42191;47.562;9.686;2023-09-19T10:05:20;97008.00;;;25.90
56286;BMP180;42191;47.562;9.686;2023-09-19T10:07:47;97005.00;;;26.00
56286;BMP180;42191;47.562;9.686;2023-09-19T10:10:30;97006.00;;;26.00
56286;BMP180;42191;47.562;9.686;2023-09-19T10:13:06;97009.00;;;26.00
56286;BMP180;42191;47.562;9.686;2023-09-19T10:15:33;97017.00;;;26.00
56286;BMP180;42191;47.562;9.686;2023-09-19T10:18:04;97008.00;;;26.00
56286;BMP180;42191;47.562;9.686;2023-09-19T10:20:31;97006.00;;;26.10
56286;BMP180;42191;47.562;9.686;2023-09-19T10:23:08;97008.00;;;26.00
56286;BMP180;42191;47.562;9.686;2023-09-19T10:25:42;97016.00;;;26.00
56286;BMP180;42191;47.562;9.686;2023-09-19T10:28:16;97007.00;;;26.00
56286;BMP180;42191;47.562;9.686;2023-09-19T10:30:48;97014.00;;;26.00
56286;BMP180;42191;47.562;9.686;2023-09-19T10:33:17;97016.00;;;26.00
56286;BMP180;42191;47.562;9.686;2023-09-19T10:35:49;97017.00;;;26.00
56286;BMP180;42191;47.562;9.686;2023-09-19T10:38:26;97014.00;;;26.00
56286;BMP180;42191;47.562;9.686;2023-09-19T10:40:57;97023.00;;;26.10
56286;BMP180;42191;47.562;9.686;2023-09-19T10:43:29;97014.00;;;26.20
56286;BMP180;42191;47.562;9.686;2023-09-19T10:46:17;97009.00;;;26.40
56286;BMP180;42191;47.562;9.686;2023-09-19T10:48:43;97025.00;;;26.50
56286;BMP180;42191;47.562;9.686;2023-09-19T10:51:16;97022.00;;;26.60
56286;BMP180;42191;47.562;9.686;2023-09-19T10:53:47;97019.00;;;26.70
56286;BMP180;42191;47.562;9.686;2023-09-19T10:59:21;97020.00;;;26.70
56286;BMP180;42191;47.562;9.686;2023-09-19T11:04:32;97011.00;;;26.70
56286;BMP180;42191;47.562;9.686;2023-09-19T11:07:13;97014.00;;;26.80
56286;BMP180;42191;47.562;9.686;2023-09-19T11:09:56;97010.00;;;26.80
56286;BMP180;42191;47.562;9.686;2023-09-19T11:14:57;97002.00;;;26.80
56286;BMP180;42191;47.562;9.686;2023-09-19T11:17:34;97002.00;;;26.80
56286;BMP180;42191;47.562;9.686;2023-09-19T11:30:51;97006.00;;;26.70
56286;BMP180;42191;47.562;9.686;2023-09-19T11:33:29;96999.00;;;26.80
56286;BMP180;42191;47.562;9.686;2023-09-19T11:36:11;97010.00;;;26.90
56286;BMP180;42191;47.562;9.686;2023-09-19T11:46:54;96992.00;;;26.90
56286;BMP180;42191;47.562;9.686;2023-09-19T11:49:31;97000.00;;;26.90
56286;BMP180;42191;47.562;9.686;2023-09-19T11:52:00;96992.00;;;26.90
56286;BMP180;42191;47.562;9.686;2023-09-19T11:54:31;96984.00;;;27.00
56286;BMP180;42191;47.562;9.686;2023-09-19T11:56:59;96990.00;;;27.00
56286;BMP180;42191;47.562;9.686;2023-09-19T11:59:27;96982.00;;;27.00
56286;BMP180;42191;47.562;9.686;2023-09-19T12:02:06;96987.00;;;27.00
56286;BMP180;42191;47.562;9.686;2023-09-19T12:04:42;96980.00;;;27.00
56286;BMP180;42191;47.562;9.686;2023-09-19T12:07:14;96978.00;;;27.00
56286;BMP180;42191;47.562;9.686;2023-09-19T12:09:46;96969.00;;;27.00
56286;BMP180;42191;47.562;9.686;2023-09-19T12:12:27;96975.00;;;27.00
56286;BMP180;42191;47.562;9.686;2023-09-19T12:14:55;96969.00;;;27.00
56286;BMP180;42191;47.562;9.686;2023-09-19T12:17:23;96965.00;;;27.00
56286;BMP180;42191;47.562;9.686;2023-09-19T12:20:02;96954.00;;;27.00
56286;BMP180;42191;47.562;9.686;2023-09-19T12:22:46;96954.00;;;27.00
56286;BMP180;42191;47.562;9.686;2023-09-19T12:25:15;96949.00;;;27.10
56286;BMP180;42191;47.562;9.686;2023-09-19T12:27:44;96954.00;;;27.10
56286;BMP180;42191;47.562;9.686;2023-09-19T12:30:16;96950.00;;;27.20
56286;BMP180;42191;47.562;9.686;2023-09-19T12:32:45;96965.00;;;27.20
56286;BMP180;42191;47.562;9.686;2023-09-19T12:35:30;96964.00;;;27.20
56286;BMP180;42191;47.562;9.686;2023-09-19T12:37:57;96951.00;;;27.10
56286;BMP180;42191;47.562;9.686;2023-09-19T12:40:24;96952.00;;;27.10
56286;BMP180;42191;47.562;9.686;2023-09-19T12:43:03;96943.00;;;27.00
56286;BMP180;42191;47.562;9.686;2023-09-19T12:45:33;96947.00;;;27.00
56286;BMP180;42191;47.562;9.686;2023-09-19T12:48:23;96949.00;;;27.00
56286;BMP180;42191;47.562;9.686;2023-09-19T12:51:08;96943.00;;;27.00
56286;BMP180;42191;47.562;9.686;2023-09-19T12:53:44;96944.00;;;26.90
56286;BMP180;42191;47.562;9.686;2023-09-19T12:56:16;96950.00;;;26.90
56286;BMP180;42191;47.562;9.686;2023-09-19T12:58:57;96939.00;;;27.00
56286;BMP180;42191;47.562;9.686;2023-09-19T13:01:42;96940.00;;;27.00
56286;BMP180;42191;47.562;9.686;2023-09-19T13:04:17;96937.00;;;27.10
56286;BMP180;42191;47.562;9.686;2023-09-19T13:06:51;96934.00;;;27.10
56286;BMP180;42191;47.562;9.686;2023-09-19T13:09:19;96935.00;;;27.10
56286;BMP180;42191;47.562;9.686;2023-09-19T13:11:46;96932.00;;;27.10
56286;BMP180;42191;47.562;9.686;2023-09-19T13:14:25;96928.00;;;27.20
56286;BMP180;42191;47.562;9.686;2023-09-19T13:17:11;96929.00;;;27.20
56286;BMP180;42191;47.562;9.686;2023-09-19T13:19:46;96908.00;;;27.20
56286;BMP180;42191;47.562;9.686;2023-09-19T13:22:44;96918.00;;;27.20
56286;BMP180;42191;47.562;9.686;2023-09-19T13:25:31;96901.00;;;27.20
56286;BMP180;42191;47.562;9.686;2023-09-19T13:27:59;96905.00;;;27.30
56286;BMP180;42191;47.562;9.686;2023-09-19T13:30:27;96898.00;;;27.60
56286;BMP180;42191;47.562;9.686;2023-09-19T13:33:11;96896.00;;;28.10
56286;BMP180;42191;47.562;9.686;2023-09-19T13:35:38;96894.00;;;28.70
56286;BMP180;42191;47.562;9.686;2023-09-19T13:38:06;96890.00;;;29.40
56286;BMP180;42191;47.562;9.686;2023-09-19T13:40:35;96895.00;;;30.20
56286;BMP180;42191;47.562;9.686;2023-09-19T13:43:02;96886.00;;;30.90
56286;BMP180;42191;47.562;9.686;2023-09-19T13:45:47;96881.00;;;31.70
56286;BMP180;42191;47.562;9.686;2023-09-19T13:48:14;96879.00;;;32.30
56286;BMP180;42191;47.562;9.686;2023-09-19T13:50:52;96876.00;;;33.00
56286;BMP180;42191;47.562;9.686;2023-09-19T13:53:18;96877.00;;;33.60
56286;BMP180;42191;47.562;9.686;2023-09-19T13:55:46;96871.00;;;34.20
56286;BMP180;42191;47.562;9.686;2023-09-19T13:58:14;96872.00;;;34.80
56286;BMP180;42191;47.562;9.686;2023-09-19T14:00:40;96879.00;;;35.30
56286;BMP180;42191;47.562;9.686;2023-09-19T14:03:13;96869.00;;;35.80
56286;BMP180;42191;47.562;9.686;2023-09-19T14:05:41;96867.00;;;36.00
56286;BMP180;42191;47.562;9.686;2023-09-19T14:08:08;96872.00;;;36.30
56286;BMP180;42191;47.562;9.686;2023-09-19T14:10:34;96866.00;;;36.60
56286;BMP180;42191;47.562;9.686;2023-09-19T14:13:01;96869.00;;;37.00
56286;BMP180;42191;47.562;9.686;2023-09-19T14:15:30;96860.00;;;37.20
56286;BMP180;42191;47.562;9.686;2023-09-19T14:18:01;96865.00;;;37.40
56286;BMP180;42191;47.562;9.686;2023-09-19T14:20:28;96861.00;;;37.40
56286;BMP180;42191;47.562;9.686;2023-09-19T14:22:55;96857.00;;;37.40
56286;BMP180;42191;47.562;9.686;2023-09-19T14:25:21;96858.00;;;37.60
56286;BMP180;42191;47.562;9.686;2023-09-19T14:27:48;96853.00;;;37.80
56286;BMP180;42191;47.562;9.686;2023-09-19T14:30:20;96847.00;;;38.00
56286;BMP180;42191;47.562;9.686;2023-09-19T14:32:47;96851.00;;;38.10
56286;BMP180;42191;47.562;9.686;2023-09-19T14:35:14;96846.00;;;38.10
56286;BMP180;42191;47.562;9.686;2023-09-19T14:37:40;96848.00;;;38.10
56286;BMP180;42191;47.562;9.686;2023-09-19T14:40:07;96847.00;;;38.10
56286;BMP180;42191;47.562;9.686;2023-09-19T14:42:38;96842.00;;;38.10
56286;BMP180;42191;47.562;9.686;2023-09-19T14:45:06;96843.00;;;38.20
56286;BMP180;42191;47.562;9.686;2023-09-19T14:47:33;96842.00;;;38.40
56286;BMP180;42191;47.562;9.686;2023-09-19T14:50:01;96836.00;;;38.60
56286;BMP180;42191;47.562;9.686;2023-09-19T14:52:29;96836.00;;;38.90
56286;BMP180;42191;47.562;9.686;2023-09-19T14:54:55;96840.00;;;39.00
56286;BMP180;42191;47.562;9.686;2023-09-19T14:57:25;96840.00;;;39.20
56286;BMP180;42191;47.562;9.686;2023-09-19T14:59:53;96834.00;;;39.40
56286;BMP180;42191;47.562;9.686;2023-09-19T15:02:20;96826.00;;;39.40
56286;BMP180;42191;47.562;9.686;2023-09-19T15:04:46;96830.00;;;39.30
56286;BMP180;42191;47.562;9.686;2023-09-19T15:07:14;96828.00;;;39.30
56286;BMP180;42191;47.562;9.686;2023-09-19T15:09:41;96831.00;;;39.30
56286;BMP180;42191;47.562;9.686;2023-09-19T15:12:08;96822.00;;;39.30